Time;durP1;ratioP1;P1;durP2;ratioP2;P2;SDS_P1;SDS_P2;PMS_P1;PMS_P2;Temp;Humidity;BMP_temperature;BMP_pressure;BME280_temperature;BME280_humidity;BME280_pressure;Samples;Min_cycle;Max_cycle;Signal;HPM_P1;HPM_P2
2023/01/30 00:00:22;;;;;;;;;;;6.50;99.90;;;;;;5031349;28;1212;-64
2023/01/30 00:02:48;;;;;;;;;;;6.40;99.90;;;;;;5014160;28;1162;-64
2023/01/30 00:05:14;;;;;;;;;;;6.30;99.90;;;;;;5031255;28;1967;-64
2023/01/30 00:07:39;;;;;;;;;;;6.40;99.90;;;;;;5031191;28;1571;-64
2023/01/30 00:10:05;;;;;;;;;;;6.40;99.90;;;;;;5033026;28;1173;-64
2023/01/30 00:12:31;;;;;;;;;;;6.40;99.90;;;;;;5031372;28;1122;-64
2023/01/30 00:14:56;;;;;;;;;;;6.50;99.90;;;;;;5025415;28;1213;-64
2023/01/30 00:17:22;;;;;;;;;;;6.50;99.90;;;;;;5011945;28;1122;-64
2023/01/30 00:19:48;;;;;;;;;;;6.50;99.90;;;;;;5011501;28;1165;-63
2023/01/30 00:22:13;;;;;;;;;;;6.50;99.90;;;;;;4993598;28;1311;-64
2023/01/30 00:24:39;;;;;;;;;;;6.50;99.90;;;;;;5016562;28;1923;-64
2023/01/30 00:27:05;;;;;;;;;;;6.40;99.90;;;;;;5022663;28;1105;-63
2023/01/30 00:29:30;;;;;;;;;;;6.40;99.90;;;;;;5010105;28;1126;-63
2023/01/30 00:31:56;;;;;;;;;;;6.70;99.90;;;;;;5016254;28;1156;-64
2023/01/30 00:34:21;;;;;;;;;;;6.50;99.90;;;;;;5013067;28;1144;-64
2023/01/30 00:36:47;;;;;;;;;;;6.50;99.90;;;;;;5011411;28;1083;-64
2023/01/30 00:39:13;;;;;;;;;;;6.60;99.90;;;;;;5011278;28;1180;-64
2023/01/30 00:47:08;;;;;;;;;;;6.70;99.90;;;;;;5024905;28;1205;-64
2023/01/30 00:49:34;;;;;;;;;;;6.60;99.90;;;;;;5013857;28;1097;-63
2023/01/30 00:52:00;;;;;;;;;;;6.60;99.90;;;;;;5030651;28;1408;-63
2023/01/30 00:54:26;;;;;;;;;;;6.50;99.90;;;;;;5010906;28;1114;-64
2023/01/30 00:56:51;;;;;;;;;;;6.50;99.90;;;;;;5010029;28;1224;-64
2023/01/30 00:59:17;;;;;;;;;;;6.40;99.90;;;;;;5010781;28;1233;-64
2023/01/30 01:01:44;;;;;;;;;;;6.30;99.90;;;;;;5009866;28;1198;-64
2023/01/30 01:04:10;;;;;;;;;;;6.20;99.90;;;;;;5010046;28;1907;-63
2023/01/30 01:06:36;;;;;;;;;;;6.20;99.90;;;;;;5009526;28;1417;-64
2023/01/30 01:09:02;;;;;;;;;;;6.20;99.90;;;;;;5009500;28;1186;-64
2023/01/30 01:11:28;;;;;;;;;;;6.20;99.90;;;;;;5009975;28;1131;-63
2023/01/30 01:13:55;;;;;;;;;;;6.20;99.90;;;;;;5010973;28;1132;-64
2023/01/30 01:16:21;;;;;;;;;;;6.10;99.90;;;;;;5025926;28;1147;-63
2023/01/30 01:18:47;;;;;;;;;;;6.10;99.90;;;;;;5012270;28;1044;-63
2023/01/30 01:21:13;;;;;;;;;;;6.10;99.90;;;;;;5030153;28;1145;-63
2023/01/30 01:23:39;;;;;;;;;;;6.10;99.90;;;;;;5013776;28;1622;-63
2023/01/30 01:26:04;;;;;;;;;;;6.10;99.90;;;;;;5025264;28;1906;-63
2023/01/30 01:28:33;;;;;;;;;;;6.10;99.90;;;;;;5030454;28;1097;-64
2023/01/30 01:30:59;;;;;;;;;;;6.10;99.90;;;;;;5010942;28;1192;-63
2023/01/30 01:33:27;;;;;;;;;;;6.10;99.90;;;;;;5019318;28;1158;-63
2023/01/30 01:35:54;;;;;;;;;;;6.10;99.90;;;;;;5029858;28;1221;-63
2023/01/30 01:38:21;;;;;;;;;;;6.10;99.90;;;;;;5011721;28;1109;-63
2023/01/30 01:41:04;;;;;;;;;;;6.10;99.90;;;;;;5011756;28;1133;-63
2023/01/30 01:43:33;;;;;;;;;;;6.10;99.90;;;;;;5018326;28;1106;-63
2023/01/30 01:46:03;;;;;;;;;;;6.10;99.90;;;;;;5003371;28;1907;-63
2023/01/30 01:48:35;;;;;;;;;;;6.20;99.90;;;;;;5029540;28;1102;-63
2023/01/30 01:51:04;;;;;;;;;;;6.20;99.90;;;;;;5018546;28;1345;-63
2023/01/30 01:53:33;;;;;;;;;;;6.20;99.90;;;;;;5019911;28;1031;-63
2023/01/30 01:56:00;;;;;;;;;;;6.20;99.90;;;;;;5011697;28;1157;-63
2023/01/30 01:58:34;;;;;;;;;;;6.30;99.90;;;;;;5026344;28;1166;-63
2023/01/30 02:01:00;;;;;;;;;;;6.40;99.90;;;;;;5010303;28;1149;-63
2023/01/30 02:03:27;;;;;;;;;;;6.30;99.90;;;;;;4998552;28;1003;-63
2023/01/30 02:05:56;;;;;;;;;;;6.40;99.90;;;;;;5025648;28;1914;-63
2023/01/30 02:08:25;;;;;;;;;;;6.40;99.90;;;;;;5009581;28;1114;-63
2023/01/30 02:11:05;;;;;;;;;;;6.50;99.90;;;;;;5001232;28;1186;-63
2023/01/30 02:13:31;;;;;;;;;;;6.40;99.90;;;;;;5028140;28;1118;-63
2023/01/30 02:15:57;;;;;;;;;;;6.40;99.90;;;;;;5029170;28;1184;-63
2023/01/30 02:18:23;;;;;;;;;;;6.50;99.90;;;;;;5027946;28;1138;-63
2023/01/30 02:20:55;;;;;;;;;;;6.60;99.90;;;;;;5028693;28;1098;-63
2023/01/30 02:23:39;;;;;;;;;;;6.60;99.90;;;;;;5016155;28;1630;-63
2023/01/30 02:26:32;;;;;;;;;;;6.60;99.90;;;;;;5003780;28;1930;-63
2023/01/30 02:29:08;;;;;;;;;;;6.70;99.90;;;;;;5009566;28;1272;-63
2023/01/30 02:31:38;;;;;;;;;;;6.70;99.90;;;;;;5001291;28;1177;-63
2023/01/30 02:34:10;;;;;;;;;;;6.70;99.90;;;;;;5007036;28;1296;-63
2023/01/30 02:36:47;;;;;;;;;;;6.80;99.90;;;;;;5008897;28;1277;-63
2023/01/30 02:39:36;;;;;;;;;;;6.70;99.90;;;;;;5002097;28;1182;-63
2023/01/30 02:42:02;;;;;;;;;;;6.70;99.90;;;;;;5008903;28;1213;-63
2023/01/30 02:44:34;;;;;;;;;;;6.70;99.90;;;;;;5004102;28;2003;-63
2023/01/30 02:47:03;;;;;;;;;;;6.90;99.90;;;;;;5005360;28;1111;-63
2023/01/30 02:49:32;;;;;;;;;;;6.80;99.90;;;;;;5025142;28;1117;-63
2023/01/30 02:52:00;;;;;;;;;;;6.90;99.90;;;;;;5015318;28;1337;-63
2023/01/30 02:54:26;;;;;;;;;;;6.90;99.90;;;;;;5010562;28;1135;-63
2023/01/30 02:56:52;;;;;;;;;;;6.80;99.90;;;;;;5010297;28;1147;-63
2023/01/30 02:59:24;;;;;;;;;;;6.90;99.90;;;;;;5019191;28;1165;-63
2023/01/30 03:02:09;;;;;;;;;;;6.90;99.90;;;;;;5007054;28;1126;-63
2023/01/30 03:04:38;;;;;;;;;;;6.80;99.90;;;;;;5011466;28;2061;-63
2023/01/30 03:07:16;;;;;;;;;;;6.80;99.90;;;;;;5011264;28;1604;-63
2023/01/30 03:09:50;;;;;;;;;;;6.90;99.90;;;;;;5009531;28;999;-63
2023/01/30 03:12:19;;;;;;;;;;;6.90;99.90;;;;;;5018389;28;1036;-63
2023/01/30 03:14:48;;;;;;;;;;;6.90;99.90;;;;;;5014512;28;1096;-63
2023/01/30 03:17:15;;;;;;;;;;;6.90;99.90;;;;;;5026588;28;1125;-63
2023/01/30 03:19:41;;;;;;;;;;;6.90;99.90;;;;;;5025376;28;1237;-63
2023/01/30 03:22:07;;;;;;;;;;;6.90;99.90;;;;;;5007571;28;1385;-63
2023/01/30 03:24:33;;;;;;;;;;;7.00;99.90;;;;;;5009492;28;1978;-63
2023/01/30 03:27:02;;;;;;;;;;;7.00;99.90;;;;;;5009274;28;1130;-63
2023/01/30 03:29:28;;;;;;;;;;;6.90;99.90;;;;;;5012533;28;1118;-63
2023/01/30 03:31:54;;;;;;;;;;;7.00;99.90;;;;;;5008041;28;1135;-63
2023/01/30 03:34:19;;;;;;;;;;;6.90;99.90;;;;;;5011441;28;1173;-63
2023/01/30 03:36:46;;;;;;;;;;;6.90;99.90;;;;;;5011113;28;1091;-63
2023/01/30 03:39:12;;;;;;;;;;;6.90;99.90;;;;;;5011982;28;1094;-63
2023/01/30 03:41:38;;;;;;;;;;;6.80;99.90;;;;;;4994798;28;1163;-63
2023/01/30 03:44:04;;;;;;;;;;;6.70;99.90;;;;;;5010378;28;1938;-63
2023/01/30 03:46:30;;;;;;;;;;;6.70;99.90;;;;;;4998166;28;1242;-62
2023/01/30 03:48:55;;;;;;;;;;;6.70;99.90;;;;;;5013737;28;1131;-63
2023/01/30 03:51:21;;;;;;;;;;;6.60;99.90;;;;;;5009970;28;1294;-62
2023/01/30 03:53:47;;;;;;;;;;;6.60;99.90;;;;;;4994287;28;1134;-62
2023/01/30 03:56:13;;;;;;;;;;;6.60;99.90;;;;;;5011377;28;1164;-62
2023/01/30 03:58:38;;;;;;;;;;;6.50;99.90;;;;;;5010485;28;1140;-62
2023/01/30 04:01:15;;;;;;;;;;;6.40;99.90;;;;;;5010943;28;1127;-62
2023/01/30 04:03:41;;;;;;;;;;;6.30;99.90;;;;;;5010806;28;1170;-62
2023/01/30 04:06:07;;;;;;;;;;;6.20;99.90;;;;;;5026478;28;1993;-62
2023/01/30 04:08:33;;;;;;;;;;;6.20;99.90;;;;;;5011809;28;1086;-63
2023/01/30 04:10:59;;;;;;;;;;;6.10;99.90;;;;;;5012158;28;1055;-63
2023/01/30 04:13:25;;;;;;;;;;;6.10;99.90;;;;;;5009654;28;1005;-63
2023/01/30 04:15:51;;;;;;;;;;;6.00;99.90;;;;;;5027283;28;1181;-63
2023/01/30 04:18:51;;;;;;;;;;;6.10;99.90;;;;;;5031257;28;1342;-63
2023/01/30 04:21:19;;;;;;;;;;;6.10;99.90;;;;;;5013216;28;1158;-63
2023/01/30 04:23:45;;;;;;;;;;;6.10;99.90;;;;;;5012745;28;1607;-63
2023/01/30 04:26:12;;;;;;;;;;;6.10;99.90;;;;;;5013165;28;1974;-63
2023/01/30 04:28:40;;;;;;;;;;;6.10;99.90;;;;;;5013766;28;1265;-64
2023/01/30 04:31:07;;;;;;;;;;;6.10;99.90;;;;;;5012671;28;1126;-63
2023/01/30 04:33:38;;;;;;;;;;;6.10;99.90;;;;;;5030781;28;1102;-63
2023/01/30 04:36:07;;;;;;;;;;;6.00;99.90;;;;;;5013621;28;1186;-63
2023/01/30 04:38:33;;;;;;;;;;;5.90;99.90;;;;;;4996706;28;1143;-63
2023/01/30 04:40:59;;;;;;;;;;;5.80;99.90;;;;;;5028792;28;1075;-63
2023/01/30 04:43:28;;;;;;;;;;;5.80;99.90;;;;;;5029896;28;1110;-63
2023/01/30 04:45:54;;;;;;;;;;;6.00;99.90;;;;;;5031640;28;1910;-63
2023/01/30 04:48:22;;;;;;;;;;;5.80;99.90;;;;;;5020230;28;1260;-63
2023/01/30 04:50:50;;;;;;;;;;;6.00;99.90;;;;;;5007807;28;1385;-63
2023/01/30 04:53:16;;;;;;;;;;;5.80;99.90;;;;;;5030512;28;1138;-63
2023/01/30 04:55:42;;;;;;;;;;;5.80;99.90;;;;;;5030411;28;1161;-63
2023/01/30 04:58:08;;;;;;;;;;;5.80;99.90;;;;;;5012991;28;1185;-63
2023/01/30 05:00:33;;;;;;;;;;;5.80;99.90;;;;;;5025825;28;1300;-63
2023/01/30 05:03:00;;;;;;;;;;;5.80;99.90;;;;;;5021223;28;1280;-63
2023/01/30 05:05:26;;;;;;;;;;;5.90;99.90;;;;;;5038960;28;1910;-63
2023/01/30 05:07:51;;;;;;;;;;;5.90;99.90;;;;;;5016610;28;1238;-63
2023/01/30 05:10:17;;;;;;;;;;;5.90;99.90;;;;;;5029531;28;1272;-63
2023/01/30 05:12:44;;;;;;;;;;;5.90;99.90;;;;;;5026052;28;1284;-63
2023/01/30 05:15:10;;;;;;;;;;;5.90;99.90;;;;;;5043764;28;1110;-63
2023/01/30 05:17:36;;;;;;;;;;;5.90;99.90;;;;;;5011838;28;1101;-63
2023/01/30 05:20:02;;;;;;;;;;;5.80;99.90;;;;;;5030411;28;1125;-63
2023/01/30 05:22:28;;;;;;;;;;;5.80;99.90;;;;;;5029195;28;1381;-63
2023/01/30 05:24:54;;;;;;;;;;;5.80;99.90;;;;;;5029558;28;1938;-63
2023/01/30 05:27:19;;;;;;;;;;;5.80;99.90;;;;;;5030189;28;1181;-63
2023/01/30 05:29:45;;;;;;;;;;;5.70;99.90;;;;;;5011767;28;1098;-63
2023/01/30 05:32:13;;;;;;;;;;;5.90;99.90;;;;;;5030050;28;1153;-63
2023/01/30 05:34:39;;;;;;;;;;;5.70;99.90;;;;;;5037011;28;1162;-63
2023/01/30 05:37:04;;;;;;;;;;;5.70;99.90;;;;;;5031047;28;1091;-63
2023/01/30 05:39:30;;;;;;;;;;;5.70;99.90;;;;;;5050176;28;1134;-63
2023/01/30 05:41:56;;;;;;;;;;;5.70;99.90;;;;;;5041526;28;1108;-63
2023/01/30 05:44:21;;;;;;;;;;;5.70;99.90;;;;;;5029266;28;1927;-63
2023/01/30 05:46:47;;;;;;;;;;;5.70;99.90;;;;;;5030022;28;1079;-63
2023/01/30 05:49:13;;;;;;;;;;;5.70;99.90;;;;;;5029753;28;1225;-63
2023/01/30 05:51:38;;;;;;;;;;;5.70;99.90;;;;;;5028728;28;1290;-63
2023/01/30 05:54:04;;;;;;;;;;;5.70;99.90;;;;;;5011763;28;1122;-63
2023/01/30 05:56:35;;;;;;;;;;;5.70;99.90;;;;;;5029485;28;1086;-63
2023/01/30 05:59:01;;;;;;;;;;;5.60;99.90;;;;;;5028558;28;1181;-63
2023/01/30 06:01:28;;;;;;;;;;;5.70;99.90;;;;;;5011745;28;1149;-63
2023/01/30 06:03:54;;;;;;;;;;;5.70;99.90;;;;;;5011979;28;1278;-63
2023/01/30 06:06:19;;;;;;;;;;;5.70;99.90;;;;;;5028791;28;1922;-63
2023/01/30 06:08:45;;;;;;;;;;;5.80;99.90;;;;;;5028558;28;1178;-63
2023/01/30 06:11:12;;;;;;;;;;;5.80;99.90;;;;;;5029968;28;1284;-63
2023/01/30 06:13:38;;;;;;;;;;;5.80;99.90;;;;;;5046731;28;1161;-63
2023/01/30 06:16:04;;;;;;;;;;;5.90;99.90;;;;;;5014540;28;1218;-63
2023/01/30 06:18:30;;;;;;;;;;;5.80;99.90;;;;;;4999854;28;1108;-63
2023/01/30 06:20:55;;;;;;;;;;;5.80;99.90;;;;;;5009549;28;1020;-63
2023/01/30 06:23:22;;;;;;;;;;;5.80;99.90;;;;;;5009193;28;1603;-63
2023/01/30 06:25:48;;;;;;;;;;;5.80;99.90;;;;;;5009545;28;1899;-63
2023/01/30 06:28:15;;;;;;;;;;;5.80;99.90;;;;;;5029453;28;1173;-63
2023/01/30 06:30:40;;;;;;;;;;;5.70;99.90;;;;;;5028905;28;1089;-63
2023/01/30 06:33:06;;;;;;;;;;;5.70;99.90;;;;;;5028571;28;1082;-63
2023/01/30 06:35:32;;;;;;;;;;;5.80;99.90;;;;;;5026990;28;1184;-63
2023/01/30 06:37:58;;;;;;;;;;;5.60;99.90;;;;;;5009306;28;1118;-63
2023/01/30 06:40:24;;;;;;;;;;;5.60;99.90;;;;;;5008804;28;1107;-63
2023/01/30 06:42:49;;;;;;;;;;;5.60;99.90;;;;;;5009369;28;1130;-63
2023/01/30 06:45:16;;;;;;;;;;;5.60;99.90;;;;;;4995774;28;1966;-63
2023/01/30 06:47:49;;;;;;;;;;;5.70;99.90;;;;;;5008625;28;1122;-63
2023/01/30 06:50:16;;;;;;;;;;;5.80;99.90;;;;;;5009357;28;1091;-63
2023/01/30 06:52:44;;;;;;;;;;;5.80;99.90;;;;;;5015537;28;1603;-63
2023/01/30 06:55:11;;;;;;;;;;;5.80;99.90;;;;;;4995177;28;1160;-63
2023/01/30 06:57:37;;;;;;;;;;;5.90;99.90;;;;;;5009379;28;1110;-63
2023/01/30 07:00:04;;;;;;;;;;;5.90;99.90;;;;;;5009026;28;1212;-63
2023/01/30 07:02:33;;;;;;;;;;;5.90;99.90;;;;;;5017003;28;1216;-63
2023/01/30 07:04:59;;;;;;;;;;;6.00;99.90;;;;;;5012673;28;1910;-63
2023/01/30 07:07:25;;;;;;;;;;;5.90;99.90;;;;;;4993831;28;1652;-63
2023/01/30 07:09:50;;;;;;;;;;;6.00;99.90;;;;;;4995350;28;1151;-63
2023/01/30 07:12:16;;;;;;;;;;;5.90;99.90;;;;;;5022703;28;1110;-63
2023/01/30 07:14:41;;;;;;;;;;;5.90;99.90;;;;;;5036650;28;1157;-63
2023/01/30 07:17:07;;;;;;;;;;;5.90;99.90;;;;;;5033989;28;1184;-63
2023/01/30 07:19:33;;;;;;;;;;;5.90;99.90;;;;;;5035970;28;3195;-63
2023/01/30 07:21:58;;;;;;;;;;;5.90;99.90;;;;;;5028785;28;3188;-63
2023/01/30 07:24:24;;;;;;;;;;;6.00;99.90;;;;;;5029328;28;3101;-63
2023/01/30 07:26:50;;;;;;;;;;;6.00;99.90;;;;;;5026351;28;1119;-63
2023/01/30 07:29:15;;;;;;;;;;;6.10;99.90;;;;;;5024008;28;1231;-63
2023/01/30 07:31:41;;;;;;;;;;;6.40;99.90;;;;;;5029804;28;1207;-63
2023/01/30 07:34:06;;;;;;;;;;;6.10;99.90;;;;;;5023982;28;1116;-63
2023/01/30 07:36:33;;;;;;;;;;;6.10;99.90;;;;;;5027477;28;3036;-63
2023/01/30 07:39:00;;;;;;;;;;;6.10;99.90;;;;;;5017507;28;1413;-63
2023/01/30 07:41:26;;;;;;;;;;;6.10;99.90;;;;;;5030847;28;1170;-63
2023/01/30 07:43:52;;;;;;;;;;;6.20;99.90;;;;;;5030678;28;1314;-63
2023/01/30 07:46:17;;;;;;;;;;;6.20;99.90;;;;;;5031275;28;1972;-63
2023/01/30 07:48:44;;;;;;;;;;;6.30;99.90;;;;;;5047422;28;1125;-63
2023/01/30 07:51:09;;;;;;;;;;;6.30;99.90;;;;;;5033665;28;1602;-63
2023/01/30 07:53:35;;;;;;;;;;;6.30;99.90;;;;;;5032029;28;1193;-63
2023/01/30 07:56:06;;;;;;;;;;;6.30;99.90;;;;;;5031538;28;1151;-64
2023/01/30 07:58:31;;;;;;;;;;;6.20;99.90;;;;;;5043435;28;1171;-63
2023/01/30 08:00:57;;;;;;;;;;;6.20;99.90;;;;;;5031345;28;1095;-63
2023/01/30 08:03:23;;;;;;;;;;;6.30;99.90;;;;;;5031179;28;1213;-63
2023/01/30 08:05:48;;;;;;;;;;;6.30;99.90;;;;;;5030754;28;1977;-63
2023/01/30 08:08:14;;;;;;;;;;;6.30;99.90;;;;;;5028175;28;1130;-64
2023/01/30 08:10:40;;;;;;;;;;;6.40;99.90;;;;;;5013720;28;1103;-63
2023/01/30 08:13:06;;;;;;;;;;;6.50;99.90;;;;;;5032553;28;1164;-63
2023/01/30 08:15:32;;;;;;;;;;;6.50;99.90;;;;;;5031439;28;1167;-63
2023/01/30 08:17:59;;;;;;;;;;;6.50;99.90;;;;;;5012724;28;1683;-63
2023/01/30 08:20:26;;;;;;;;;;;6.50;99.90;;;;;;5025514;28;1138;-63
2023/01/30 08:22:51;;;;;;;;;;;6.50;99.90;;;;;;5030857;28;1352;-63
2023/01/30 08:25:17;;;;;;;;;;;6.50;99.90;;;;;;5030578;28;1914;-63
2023/01/30 08:27:43;;;;;;;;;;;6.40;99.90;;;;;;5046919;28;1176;-63
2023/01/30 08:30:10;;;;;;;;;;;6.50;99.90;;;;;;5042299;28;1094;-63
2023/01/30 08:32:35;;;;;;;;;;;6.60;99.90;;;;;;5012897;28;1213;-63
2023/01/30 08:35:01;;;;;;;;;;;6.60;99.90;;;;;;5030870;28;1106;-63
2023/01/30 08:37:27;;;;;;;;;;;6.60;99.90;;;;;;5031237;28;1070;-64
2023/01/30 08:39:52;;;;;;;;;;;6.60;99.90;;;;;;5030095;28;1226;-63
2023/01/30 08:42:18;;;;;;;;;;;6.60;99.90;;;;;;5030737;28;1078;-64
2023/01/30 08:44:44;;;;;;;;;;;6.60;99.90;;;;;;5030543;28;1985;-63
2023/01/30 08:47:09;;;;;;;;;;;6.60;99.90;;;;;;5016025;28;3318;-63
2023/01/30 08:49:35;;;;;;;;;;;6.60;99.90;;;;;;5028345;28;3232;-63
2023/01/30 08:52:00;;;;;;;;;;;6.70;99.90;;;;;;5027687;28;1505;-63
2023/01/30 08:54:26;;;;;;;;;;;6.70;99.90;;;;;;5027315;28;2824;-64
2023/01/30 08:56:52;;;;;;;;;;;6.70;99.90;;;;;;5027478;28;1442;-64
2023/01/30 08:59:17;;;;;;;;;;;6.90;99.90;;;;;;5027968;28;1462;-63
2023/01/30 09:01:43;;;;;;;;;;;6.90;99.90;;;;;;5023418;28;1203;-64
2023/01/30 09:04:09;;;;;;;;;;;7.00;99.90;;;;;;5027490;28;1918;-63
2023/01/30 09:06:34;;;;;;;;;;;7.00;99.90;;;;;;5028934;28;2863;-64
2023/01/30 09:09:00;;;;;;;;;;;7.10;99.90;;;;;;5026448;28;1269;-64
2023/01/30 09:11:26;;;;;;;;;;;7.20;99.90;;;;;;5027668;28;1213;-64
2023/01/30 09:13:52;;;;;;;;;;;7.10;99.90;;;;;;5027378;28;1139;-64
2023/01/30 09:16:17;;;;;;;;;;;7.10;99.90;;;;;;5028849;28;1509;-64
2023/01/30 09:18:43;;;;;;;;;;;7.00;99.90;;;;;;5027330;28;1338;-64
2023/01/30 09:21:09;;;;;;;;;;;7.10;99.90;;;;;;5024997;28;1206;-64
2023/01/30 09:23:36;;;;;;;;;;;7.00;99.90;;;;;;5028870;28;1379;-64
2023/01/30 09:26:02;;;;;;;;;;;7.00;99.90;;;;;;5030613;28;2235;-64
2023/01/30 09:28:27;;;;;;;;;;;7.00;99.90;;;;;;5028102;28;1445;-64
2023/01/30 09:30:55;;;;;;;;;;;7.10;99.90;;;;;;5029258;28;1129;-64
2023/01/30 09:33:21;;;;;;;;;;;7.00;99.90;;;;;;5029377;28;1127;-64
2023/01/30 09:35:47;;;;;;;;;;;7.10;99.90;;;;;;5028908;28;1136;-63
2023/01/30 09:38:12;;;;;;;;;;;7.10;99.90;;;;;;5030198;28;1164;-64
2023/01/30 09:40:46;;;;;;;;;;;7.10;99.90;;;;;;5011906;28;1075;-64
2023/01/30 09:43:19;;;;;;;;;;;7.10;99.90;;;;;;5032283;28;994;-64
2023/01/30 09:45:50;;;;;;;;;;;7.10;99.90;;;;;;5039560;28;1995;-63
2023/01/30 09:48:19;;;;;;;;;;;7.20;99.90;;;;;;5037959;28;1304;-64
2023/01/30 09:50:54;;;;;;;;;;;7.20;99.90;;;;;;5018357;28;1340;-63
2023/01/30 09:53:20;;;;;;;;;;;7.30;99.90;;;;;;5041060;28;1208;-63
2023/01/30 09:55:46;;;;;;;;;;;7.30;99.90;;;;;;5038781;28;1174;-64
2023/01/30 09:58:15;;;;;;;;;;;7.40;99.90;;;;;;5038170;28;1418;-63
2023/01/30 10:00:41;;;;;;;;;;;7.30;99.90;;;;;;5030256;28;1260;-63
2023/01/30 10:03:07;;;;;;;;;;;7.40;99.90;;;;;;5029482;28;971;-64
2023/01/30 10:05:36;;;;;;;;;;;7.40;99.90;;;;;;5028566;28;1992;-63
2023/01/30 10:08:13;;;;;;;;;;;7.30;99.90;;;;;;5028900;28;1588;-63
2023/01/30 10:10:38;;;;;;;;;;;7.30;99.90;;;;;;5015856;28;1111;-63
2023/01/30 10:13:09;;;;;;;;;;;7.30;99.90;;;;;;5029784;28;1125;-63
2023/01/30 10:15:42;;;;;;;;;;;7.30;99.90;;;;;;5028578;28;1253;-64
2023/01/30 10:18:17;;;;;;;;;;;7.40;99.90;;;;;;5028526;28;1016;-63
2023/01/30 10:20:44;;;;;;;;;;;7.40;99.90;;;;;;5034574;28;1166;-64
2023/01/30 10:23:32;;;;;;;;;;;7.50;99.90;;;;;;5033716;28;1289;-64
2023/01/30 10:26:00;;;;;;;;;;;7.60;99.90;;;;;;5027237;28;1953;-63
2023/01/30 10:28:29;;;;;;;;;;;8.00;99.90;;;;;;5020748;28;1268;-63
2023/01/30 10:31:02;;;;;;;;;;;8.00;99.90;;;;;;5011363;28;1158;-64
2023/01/30 10:33:32;;;;;;;;;;;7.90;99.90;;;;;;5027920;28;971;-63
2023/01/30 10:36:02;;;;;;;;;;;7.80;99.90;;;;;;5029476;28;1105;-63
2023/01/30 10:38:32;;;;;;;;;;;7.60;99.90;;;;;;5029280;28;1090;-63
2023/01/30 10:41:07;;;;;;;;;;;7.40;99.90;;;;;;5027393;28;1078;-63
2023/01/30 10:43:37;;;;;;;;;;;7.30;99.90;;;;;;5028576;28;1210;-63
2023/01/30 10:46:09;;;;;;;;;;;7.90;99.90;;;;;;5028284;28;1910;-63
2023/01/30 10:48:58;;;;;;;;;;;8.40;99.90;;;;;;5028879;28;1008;-63
2023/01/30 10:51:32;;;;;;;;;;;8.60;99.90;;;;;;5022788;28;1733;-63
2023/01/30 10:53:59;;;;;;;;;;;8.70;99.90;;;;;;5026415;28;1186;-63
2023/01/30 10:56:27;;;;;;;;;;;8.80;99.90;;;;;;5025548;28;3224;-62
2023/01/30 10:58:57;;;;;;;;;;;8.80;99.90;;;;;;5025977;28;3236;-63
2023/01/30 11:01:25;;;;;;;;;;;8.90;99.90;;;;;;5026991;28;1256;-63
2023/01/30 11:03:54;;;;;;;;;;;9.00;99.90;;;;;;5023421;28;3169;-63
2023/01/30 11:06:22;;;;;;;;;;;9.00;99.90;;;;;;5026932;28;2020;-63
2023/01/30 11:08:48;;;;;;;;;;;8.90;99.90;;;;;;5027701;28;1125;-63
2023/01/30 11:11:20;;;;;;;;;;;9.00;99.90;;;;;;5029510;28;965;-63
2023/01/30 11:13:45;;;;;;;;;;;9.00;99.90;;;;;;5031197;28;1128;-63
2023/01/30 11:16:12;;;;;;;;;;;8.90;99.90;;;;;;5027586;28;1173;-63
2023/01/30 11:18:46;;;;;;;;;;;8.90;99.90;;;;;;5028013;28;1158;-63
2023/01/30 11:21:18;;;;;;;;;;;9.10;99.90;;;;;;5027808;28;1181;-63
2023/01/30 11:23:44;;;;;;;;;;;9.30;99.90;;;;;;5028495;28;1623;-63
2023/01/30 11:26:18;;;;;;;;;;;9.20;99.90;;;;;;5043301;28;1961;-63
2023/01/30 11:28:45;;;;;;;;;;;9.20;99.90;;;;;;5027973;28;1145;-63
2023/01/30 11:31:19;;;;;;;;;;;8.70;99.90;;;;;;5028582;28;1209;-63
2023/01/30 11:33:57;;;;;;;;;;;8.30;99.90;;;;;;5013348;28;1219;-63
2023/01/30 11:36:25;;;;;;;;;;;7.90;99.90;;;;;;5020161;28;1203;-63
2023/01/30 11:38:56;;;;;;;;;;;7.60;99.90;;;;;;5028596;28;1086;-63
2023/01/30 11:41:23;;;;;;;;;;;7.60;99.90;;;;;;5010613;28;1130;-63
2023/01/30 11:43:48;;;;;;;;;;;7.50;99.90;;;;;;5027531;28;1110;-63
2023/01/30 11:46:19;;;;;;;;;;;7.50;99.90;;;;;;5010908;28;1914;-63
2023/01/30 11:48:57;;;;;;;;;;;7.50;99.90;;;;;;5028312;28;1016;-63
2023/01/30 11:51:23;;;;;;;;;;;7.50;99.90;;;;;;5027853;28;1634;-64
2023/01/30 11:53:55;;;;;;;;;;;7.50;99.90;;;;;;5030797;28;1102;-63
2023/01/30 11:56:23;;;;;;;;;;;7.50;99.90;;;;;;5031170;28;1181;-63
2023/01/30 11:58:57;;;;;;;;;;;7.50;99.90;;;;;;5031986;28;1079;-63
2023/01/30 12:01:25;;;;;;;;;;;7.50;99.90;;;;;;5032025;28;1110;-63
2023/01/30 12:03:53;;;;;;;;;;;7.90;99.90;;;;;;5030199;28;1222;-63
2023/01/30 12:06:23;;;;;;;;;;;8.30;99.90;;;;;;5031595;28;1906;-63
2023/01/30 12:08:51;;;;;;;;;;;8.10;99.90;;;;;;5031975;28;1090;-63
2023/01/30 12:11:23;;;;;;;;;;;8.00;99.90;;;;;;5030252;28;1110;-63
2023/01/30 12:13:49;;;;;;;;;;;8.00;99.90;;;;;;5031892;28;1109;-63
2023/01/30 12:16:18;;;;;;;;;;;8.00;99.90;;;;;;5013447;28;1127;-63
2023/01/30 12:18:59;;;;;;;;;;;8.10;99.90;;;;;;5030394;28;1086;-63
2023/01/30 12:21:25;;;;;;;;;;;8.60;99.90;;;;;;5030905;28;1235;-63
2023/01/30 12:23:50;;;;;;;;;;;8.60;99.90;;;;;;5031042;28;1338;-63
2023/01/30 12:26:19;;;;;;;;;;;8.40;99.90;;;;;;5047912;28;1929;-63
2023/01/30 12:28:45;;;;;;;;;;;8.00;99.90;;;;;;5044489;28;1177;-62
2023/01/30 12:31:12;;;;;;;;;;;8.50;99.90;;;;;;5032063;28;1251;-63
2023/01/30 12:33:38;;;;;;;;;;;8.70;99.90;;;;;;5020063;28;1236;-63
2023/01/30 12:36:05;;;;;;;;;;;8.80;99.90;;;;;;5033531;28;2451;-63
2023/01/30 12:38:54;;;;;;;;;;;8.90;99.90;;;;;;5027851;28;3407;-63
2023/01/30 12:41:25;;;;;;;;;;;9.10;99.90;;;;;;5025849;28;1237;-63
2023/01/30 12:43:52;;;;;;;;;;;9.40;99.90;;;;;;5025823;28;3225;-63
2023/01/30 12:46:30;;;;;;;;;;;9.20;99.90;;;;;;5012173;28;2021;-63
2023/01/30 12:49:03;;;;;;;;;;;9.30;99.90;;;;;;5026130;28;1191;-63
2023/01/30 12:51:28;;;;;;;;;;;9.80;99.90;;;;;;5028648;28;1583;-63
2023/01/30 12:54:02;;;;;;;;;;;9.90;99.90;;;;;;5008724;28;1768;-63
2023/01/30 12:56:27;;;;;;;;;;;9.90;99.90;;;;;;5028856;28;1203;-63
2023/01/30 12:59:00;;;;;;;;;;;9.60;99.90;;;;;;5030270;28;1102;-64
2023/01/30 13:01:28;;;;;;;;;;;9.10;99.90;;;;;;5029912;28;1102;-63
2023/01/30 13:03:59;;;;;;;;;;;8.70;99.90;;;;;;5029452;28;1102;-63
2023/01/30 13:06:38;;;;;;;;;;;8.50;99.90;;;;;;5031013;28;1910;-63
2023/01/30 13:09:05;;;;;;;;;;;8.30;99.90;;;;;;5030445;28;1168;-63
2023/01/30 13:11:38;;;;;;;;;;;8.10;99.90;;;;;;5033621;28;1106;-63
2023/01/30 13:14:09;;;;;;;;;;;8.00;99.90;;;;;;5033817;28;1151;-62
2023/01/30 13:16:40;;;;;;;;;;;7.90;99.90;;;;;;5030322;28;1090;-63
2023/01/30 13:19:10;;;;;;;;;;;7.90;99.90;;;;;;5030617;28;1189;-63
2023/01/30 13:21:50;;;;;;;;;;;7.80;99.90;;;;;;5029106;28;1169;-63
2023/01/30 13:24:15;;;;;;;;;;;7.90;99.90;;;;;;5030854;28;1114;-63
2023/01/30 13:26:42;;;;;;;;;;;7.90;99.90;;;;;;5050398;28;1121;-63
2023/01/30 13:29:19;;;;;;;;;;;7.90;99.90;;;;;;5049311;28;1067;-63
2023/01/30 13:31:49;;;;;;;;;;;7.80;99.90;;;;;;5034185;28;1163;-63
2023/01/30 13:34:22;;;;;;;;;;;7.80;99.90;;;;;;5030182;28;1130;-63
2023/01/30 13:36:50;;;;;;;;;;;8.00;99.90;;;;;;5029194;28;1122;-63
2023/01/30 13:39:22;;;;;;;;;;;8.10;99.90;;;;;;5029519;28;1228;-63
2023/01/30 13:41:51;;;;;;;;;;;8.00;99.90;;;;;;5029453;28;1098;-63
2023/01/30 13:44:20;;;;;;;;;;;8.00;99.90;;;;;;5030113;28;1902;-63
2023/01/30 13:46:46;;;;;;;;;;;8.00;99.90;;;;;;5029647;28;1145;-63
2023/01/30 13:49:19;;;;;;;;;;;7.90;99.90;;;;;;5028759;28;1293;-64
2023/01/30 13:51:45;;;;;;;;;;;8.10;99.90;;;;;;5029904;28;1369;-63
2023/01/30 13:54:18;;;;;;;;;;;8.20;99.90;;;;;;5029588;28;1114;-63
2023/01/30 13:56:49;;;;;;;;;;;8.40;99.90;;;;;;5029810;28;1205;-63
2023/01/30 13:59:24;;;;;;;;;;;8.80;99.90;;;;;;5027005;28;1244;-63
2023/01/30 14:01:58;;;;;;;;;;;9.20;99.90;;;;;;5032687;28;1209;-63
2023/01/30 14:04:38;;;;;;;;;;;9.40;99.90;;;;;;5048878;28;1981;-63
2023/01/30 14:07:10;;;;;;;;;;;9.50;99.90;;;;;;5029191;28;1343;-63
2023/01/30 14:09:39;;;;;;;;;;;9.70;99.90;;;;;;5029133;28;1146;-63
2023/01/30 14:12:05;;;;;;;;;;;9.60;99.90;;;;;;5016884;28;1115;-63
2023/01/30 14:14:35;;;;;;;;;;;9.60;99.90;;;;;;5025971;28;1241;-62
2023/01/30 14:17:08;;;;;;;;;;;9.50;99.90;;;;;;5008625;28;1154;-63
2023/01/30 14:19:36;;;;;;;;;;;9.20;99.90;;;;;;5009823;28;1149;-62
2023/01/30 14:22:04;;;;;;;;;;;9.10;99.90;;;;;;5008173;28;1102;-62
2023/01/30 14:24:30;;;;;;;;;;;9.00;99.90;;;;;;5018597;28;1962;-62
2023/01/30 14:26:57;;;;;;;;;;;8.70;99.90;;;;;;5009280;28;963;-62
2023/01/30 14:29:49;;;;;;;;;;;8.60;99.90;;;;;;5009554;28;1150;-62
2023/01/30 14:32:15;;;;;;;;;;;8.50;99.90;;;;;;5011189;28;1317;-62
2023/01/30 14:34:43;;;;;;;;;;;8.30;99.90;;;;;;5008109;28;982;-62
2023/01/30 14:37:25;;;;;;;;;;;8.10;99.90;;;;;;5009071;28;1137;-62
2023/01/30 14:39:52;;;;;;;;;;;8.00;99.90;;;;;;5007855;28;1209;-63
2023/01/30 14:42:25;;;;;;;;;;;8.00;99.90;;;;;;5007920;28;3173;-62
2023/01/30 14:44:53;;;;;;;;;;;8.00;99.90;;;;;;5005052;28;3181;-62
2023/01/30 14:47:19;;;;;;;;;;;8.10;99.90;;;;;;5015485;28;3171;-62
2023/01/30 14:49:46;;;;;;;;;;;8.10;99.90;;;;;;5009760;28;1255;-62
2023/01/30 14:52:25;;;;;;;;;;;8.00;99.90;;;;;;5012084;28;1426;-62
2023/01/30 14:54:51;;;;;;;;;;;7.90;99.90;;;;;;5008141;28;1261;-62